Mirgab Vi — ZGAO4 — position and weather

sailwx.info

Track history (hours):
 
Tides and Currents Weather Stations Pressure Air Temp Water Temp Dewpoint Dewpoint Depression Visibility Wind Speed Wind Dir Waves Ship Positions

Mirgab Vi

Last reported at 2016-Sep-30 22:27 UTC. Time now 2016-Oct-01 03:15 UTC.
Position N 43°43' E 007°25'.

Length 49 m; draft 2.9 m.

Type: Pleasure craft. MMSI: 319394000.

Date/timePositionNaut miles runAvg speedWind from/ knotsBaromVisibWave heightAir tempDewpointWater temp
2016-Sep-30 22:27N 43°43' E 007°25'0 0.0
2016-Sep-30 20:21N 43°43' E 007°25'0 0.0
2016-Sep-30 16:21N 43°43' E 007°25'0 0.0
2016-Sep-30 14:33N 43°43' E 007°25'4 4.1
2016-Sep-30 13:33N 43°40' E 007°20'11 3.6
2016-Sep-30 10:34N 43°33' E 007°10'6 2.9
2016-Sep-30 08:33N 43°32' E 007°02'0 0.0
2016-Sep-30 06:33N 43°32' E 007°02'0 0.0
2016-Sep-30 03:33N 43°32' E 007°02'0 0.0
2016-Sep-30 02:24N 43°32' E 007°02'0 0.0
2016-Sep-29 23:27N 43°32' E 007°02'0 0.0
2016-Sep-29 21:30N 43°32' E 007°02'0 0.0
2016-Sep-29 20:30N 43°32' E 007°02'0 0.0
2016-Sep-29 19:33N 43°32' E 007°02'7 2.4
2016-Sep-29 16:33N 43°34' E 007°12'1312.7
2016-Sep-29 15:33N 43°43' E 007°25'2 0.3
2016-Sep-29 08:14N 43°44' E 007°26'5 8.1
2016-Sep-29 07:33N 43°40' E 007°21'16 2.2
2016-Sep-29 00:27N 43°32' E 007°02'0 0.0
2016-Sep-28 21:30N 43°32' E 007°02'0 0.0
2016-Sep-28 19:33N 43°32' E 007°02'0 0.0
2016-Sep-28 16:21N 43°32' E 007°02'0 0.0
2016-Sep-28 15:24N 43°32' E 007°02'0 0.0
2016-Sep-28 12:27N 43°32' E 007°02'0 0.0
2016-Sep-28 08:30N 43°32' E 007°02'0 0.0
2016-Sep-28 03:33N 43°32' E 007°02'0 0.0
2016-Sep-28 02:33N 43°32' E 007°02'0 0.0
2016-Sep-28 01:33N 43°32' E 007°02'0 0.0
2016-Sep-27 23:24N 43°32' E 007°02'0 0.0
2016-Sep-27 19:30N 43°32' E 007°02'0 0.0
2016-Sep-27 14:30N 43°32' E 007°02'0 0.0
2016-Sep-27 13:33N 43°32' E 007°02'0 0.0
2016-Sep-27 10:33N 43°32' E 007°02'0 0.0
2016-Sep-27 00:33N 43°32' E 007°02'0 0.0
2016-Sep-26 20:33N 43°32' E 007°02'0 0.0
2016-Sep-26 19:24N 43°32' E 007°02'0 0.0
2016-Sep-26 15:30N 43°32' E 007°02'0 0.0
2016-Sep-26 13:30N 43°32' E 007°02'0 0.0
2016-Sep-26 11:33N 43°32' E 007°02'0 0.0
2016-Sep-26 08:33N 43°32' E 007°02'0 0.0
2016-Sep-26 02:27N 43°32' E 007°02'0 0.0
2016-Sep-26 01:27N 43°32' E 007°02'0 0.0
2016-Sep-26 00:30N 43°32' E 007°02'0 0.0
2016-Sep-25 21:33N 43°32' E 007°02'0 0.0
2016-Sep-25 17:21N 43°32' E 007°02'0 0.0
2016-Sep-25 16:33N 43°32' E 007°02'0 0.0
2016-Sep-25 15:33N 43°32' E 007°02'0 0.0
2016-Sep-25 14:24N 43°32' E 007°02'0 0.0
2016-Sep-25 12:24N 43°32' E 007°02'0 0.0
2016-Sep-25 11:27N 43°32' E 007°02'0 0.0
2016-Sep-25 10:30N 43°32' E 007°02'0 0.0
2016-Sep-25 09:30N 43°32' E 007°02'0 0.0
2016-Sep-25 07:33N 43°32' E 007°02'0 0.0
2016-Sep-25 04:33N 43°32' E 007°02'0 0.0
2016-Sep-25 00:21N 43°32' E 007°02'0 0.0
2016-Sep-24 22:27N 43°32' E 007°02'0 0.0
2016-Sep-24 21:24N 43°32' E 007°02'0 0.0
2016-Sep-24 19:30N 43°32' E 007°02'0 0.0
2016-Sep-24 18:30N 43°32' E 007°02'0 0.0
2016-Sep-24 17:33N 43°32' E 007°02'0 0.0
2016-Sep-24 16:33N 43°32' E 007°02'0 0.0
2016-Sep-24 14:33N 43°32' E 007°02'0 0.0
2016-Sep-24 12:33N 43°32' E 007°02'0 0.0
2016-Sep-24 10:24N 43°32' E 007°02'0 0.0
2016-Sep-24 09:27N 43°32' E 007°02'0 0.0
2016-Sep-24 03:33N 43°32' E 007°02'0 0.0
2016-Sep-24 02:33N 43°32' E 007°02'0 0.0
2016-Sep-24 01:30N 43°32' E 007°02'0 0.0
2016-Sep-24 00:30N 43°32' E 007°02'0 0.0
2016-Sep-23 19:24N 43°32' E 007°02'0 0.0
2016-Sep-23 17:27N 43°32' E 007°02'0 0.0
2016-Sep-23 16:30N 43°32' E 007°02'0 0.0
2016-Sep-23 15:30N 43°32' E 007°02'0 0.0
2016-Sep-23 13:30N 43°32' E 007°02'0 0.0
2016-Sep-23 09:33N 43°32' E 007°02'0 0.0
2016-Sep-23 06:24N 43°32' E 007°02'0 0.0
2016-Sep-23 04:27N 43°32' E 007°02'0 0.0
2016-Sep-23 03:30N 43°32' E 007°02'0 0.0
2016-Sep-23 02:27N 43°32' E 007°02'0 0.0
2016-Sep-23 01:30N 43°32' E 007°02'0 0.0
2016-Sep-23 00:30N 43°32' E 007°02'0 0.0
2016-Sep-22 23:30N 43°32' E 007°02'0 0.0
2016-Sep-22 00:12N 43°32' E 007°02'0 0.0
2016-Sep-21 16:33N 43°32' E 007°02'0 0.0
2016-Sep-21 09:27N 43°32' E 007°02'0 0.0
2016-Sep-21 08:30N 43°32' E 007°02'0 0.0
2016-Sep-21 03:33N 43°32' E 007°02'0 0.0
2016-Sep-21 02:33N 43°32' E 007°02'  
Track history (hours):
 
Tides and Currents Weather Stations Pressure Air Temp Water Temp Dewpoint Dewpoint Depression Visibility Wind Speed Wind Dir Waves Ship Positions

Mirgab Vi

Last reported at 2016-Sep-30 22:27 UTC. Time now 2016-Oct-01 03:15 UTC.
Position N 43°43' E 007°25'.

Length 49 m; draft 2.9 m.

Type: Pleasure craft. MMSI: 319394000.

Date/timePositionNaut miles runAvg speedWind from/ knotsBaromVisibWave heightAir tempDewpointWater temp
2016-Sep-30 22:27N 43°43' E 007°25'0 0.0
2016-Sep-30 20:21N 43°43' E 007°25'0 0.0
2016-Sep-30 16:21N 43°43' E 007°25'0 0.0
2016-Sep-30 14:33N 43°43' E 007°25'4 4.1
2016-Sep-30 13:33N 43°40' E 007°20'11 3.6
2016-Sep-30 10:34N 43°33' E 007°10'6 2.9
2016-Sep-30 08:33N 43°32' E 007°02'0 0.0
2016-Sep-30 06:33N 43°32' E 007°02'0 0.0
2016-Sep-30 03:33N 43°32' E 007°02'0 0.0
2016-Sep-30 02:24N 43°32' E 007°02'0 0.0
2016-Sep-29 23:27N 43°32' E 007°02'0 0.0
2016-Sep-29 21:30N 43°32' E 007°02'0 0.0
2016-Sep-29 20:30N 43°32' E 007°02'0 0.0
2016-Sep-29 19:33N 43°32' E 007°02'7 2.4
2016-Sep-29 16:33N 43°34' E 007°12'1312.7
2016-Sep-29 15:33N 43°43' E 007°25'2 0.3
2016-Sep-29 08:14N 43°44' E 007°26'5 8.1
2016-Sep-29 07:33N 43°40' E 007°21'16 2.2
2016-Sep-29 00:27N 43°32' E 007°02'0 0.0
2016-Sep-28 21:30N 43°32' E 007°02'0 0.0
2016-Sep-28 19:33N 43°32' E 007°02'0 0.0
2016-Sep-28 16:21N 43°32' E 007°02'0 0.0
2016-Sep-28 15:24N 43°32' E 007°02'0 0.0
2016-Sep-28 12:27N 43°32' E 007°02'0 0.0
2016-Sep-28 08:30N 43°32' E 007°02'0 0.0
2016-Sep-28 03:33N 43°32' E 007°02'0 0.0
2016-Sep-28 02:33N 43°32' E 007°02'0 0.0
2016-Sep-28 01:33N 43°32' E 007°02'0 0.0
2016-Sep-27 23:24N 43°32' E 007°02'0 0.0
2016-Sep-27 19:30N 43°32' E 007°02'0 0.0
2016-Sep-27 14:30N 43°32' E 007°02'0 0.0
2016-Sep-27 13:33N 43°32' E 007°02'0 0.0
2016-Sep-27 10:33N 43°32' E 007°02'0 0.0
2016-Sep-27 00:33N 43°32' E 007°02'0 0.0
2016-Sep-26 20:33N 43°32' E 007°02'0 0.0
2016-Sep-26 19:24N 43°32' E 007°02'0 0.0
2016-Sep-26 15:30N 43°32' E 007°02'0 0.0
2016-Sep-26 13:30N 43°32' E 007°02'0 0.0
2016-Sep-26 11:33N 43°32' E 007°02'0 0.0
2016-Sep-26 08:33N 43°32' E 007°02'0 0.0
2016-Sep-26 02:27N 43°32' E 007°02'0 0.0
2016-Sep-26 01:27N 43°32' E 007°02'0 0.0
2016-Sep-26 00:30N 43°32' E 007°02'0 0.0
2016-Sep-25 21:33N 43°32' E 007°02'0 0.0
2016-Sep-25 17:21N 43°32' E 007°02'0 0.0
2016-Sep-25 16:33N 43°32' E 007°02'0 0.0
2016-Sep-25 15:33N 43°32' E 007°02'0 0.0
2016-Sep-25 14:24N 43°32' E 007°02'0 0.0
2016-Sep-25 12:24N 43°32' E 007°02'0 0.0
2016-Sep-25 11:27N 43°32' E 007°02'0 0.0
2016-Sep-25 10:30N 43°32' E 007°02'0 0.0
2016-Sep-25 09:30N 43°32' E 007°02'0 0.0
2016-Sep-25 07:33N 43°32' E 007°02'0 0.0
2016-Sep-25 04:33N 43°32' E 007°02'0 0.0
2016-Sep-25 00:21N 43°32' E 007°02'0 0.0
2016-Sep-24 22:27N 43°32' E 007°02'0 0.0
2016-Sep-24 21:24N 43°32' E 007°02'0 0.0
2016-Sep-24 19:30N 43°32' E 007°02'0 0.0
2016-Sep-24 18:30N 43°32' E 007°02'0 0.0
2016-Sep-24 17:33N 43°32' E 007°02'0 0.0
2016-Sep-24 16:33N 43°32' E 007°02'0 0.0
2016-Sep-24 14:33N 43°32' E 007°02'0 0.0
2016-Sep-24 12:33N 43°32' E 007°02'0 0.0
2016-Sep-24 10:24N 43°32' E 007°02'0 0.0
2016-Sep-24 09:27N 43°32' E 007°02'0 0.0
2016-Sep-24 03:33N 43°32' E 007°02'0 0.0
2016-Sep-24 02:33N 43°32' E 007°02'0 0.0
2016-Sep-24 01:30N 43°32' E 007°02'0 0.0
2016-Sep-24 00:30N 43°32' E 007°02'0 0.0
2016-Sep-23 19:24N 43°32' E 007°02'0 0.0
2016-Sep-23 17:27N 43°32' E 007°02'0 0.0
2016-Sep-23 16:30N 43°32' E 007°02'0 0.0
2016-Sep-23 15:30N 43°32' E 007°02'0 0.0
2016-Sep-23 13:30N 43°32' E 007°02'0 0.0
2016-Sep-23 09:33N 43°32' E 007°02'0 0.0
2016-Sep-23 06:24N 43°32' E 007°02'0 0.0
2016-Sep-23 04:27N 43°32' E 007°02'0 0.0
2016-Sep-23 03:30N 43°32' E 007°02'0 0.0
2016-Sep-23 02:27N 43°32' E 007°02'0 0.0
2016-Sep-23 01:30N 43°32' E 007°02'0 0.0
2016-Sep-23 00:30N 43°32' E 007°02'0 0.0
2016-Sep-22 23:30N 43°32' E 007°02'0 0.0
2016-Sep-22 00:12N 43°32' E 007°02'0 0.0
2016-Sep-21 16:33N 43°32' E 007°02'0 0.0
2016-Sep-21 09:27N 43°32' E 007°02'0 0.0
2016-Sep-21 08:30N 43°32' E 007°02'0 0.0
2016-Sep-21 03:33N 43°32' E 007°02'0 0.0
2016-Sep-21 02:33N 43°32' E 007°02'  

Dump ship's entire track history